Terminal Aerodrome Forecast
Issued by NWS Riverton, WY

Home | Current Version | Previous Version | Text Only | Print | Product List | Glossary On
Versions: 1 2 3 4 5 6 7 8 9 10 11 12 13
000
FTUS45 KRIW 210520
TAFRIW
TAF
KRIW 210520Z 2106/2206 02008KT P6SM FEW120 SCT200
     FM211200 34006KT P6SM SCT200
     FM211700 06007KT P6SM FEW200
     FM220000 02009KT P6SM FEW200=

USA.gov is the U.S. government's official web portal to all federal, state and local government web resources and services.